Time;durP1;ratioP1;P1;durP2;ratioP2;P2;SDS_P1;SDS_P2;PMS_P1;PMS_P2;Temp;Humidity;BMP_temperature;BMP_pressure;BME280_temperature;BME280_humidity;BME280_pressure;Samples;Min_cycle;Max_cycle;Signal;HPM_P1;HPM_P2
2021/01/16 00:00:33;;;;;;;45.23;20.20;;;-7.40;99.90;;;;;;4981517;28;21187;-83
2021/01/16 00:02:59;;;;;;;47.50;17.40;;;-7.30;99.90;;;;;;4981333;28;20061;-83
2021/01/16 00:05:29;;;;;;;40.40;15.33;;;-7.30;97.60;;;;;;4987583;28;20018;-84
2021/01/16 00:08:07;;;;;;;43.60;14.40;;;-7.40;96.50;;;;;;4997572;28;20018;-84
2021/01/16 00:10:34;;;;;;;96.93;30.57;;;-7.40;97.00;;;;;;5001696;28;20037;-84
2021/01/16 00:13:01;;;;;;;115.00;39.47;;;-7.40;96.30;;;;;;5003779;28;20014;-84
2021/01/16 00:15:27;;;;;;;144.13;46.20;;;-7.40;95.30;;;;;;5001687;28;20033;-84
2021/01/16 00:18:07;;;;;;;127.23;41.53;;;-7.50;93.60;;;;;;4999415;28;20023;-83
2021/01/16 00:20:35;;;;;;;103.17;35.13;;;-7.50;94.10;;;;;;4996175;28;20033;-82
2021/01/16 00:23:01;;;;;;;93.23;32.17;;;-7.50;95.30;;;;;;4996086;28;20093;-82
2021/01/16 00:25:27;;;;;;;96.20;33.00;;;-7.60;96.00;;;;;;4994657;28;20070;-83
2021/01/16 00:27:53;;;;;;;90.13;31.63;;;-7.50;97.40;;;;;;4994661;28;20026;-82
2021/01/16 00:30:22;;;;;;;110.23;37.30;;;-7.60;98.70;;;;;;5010324;28;20031;-83
2021/01/16 00:32:48;;;;;;;104.40;36.57;;;-7.60;98.50;;;;;;4994592;28;20018;-82
2021/01/16 00:35:16;;;;;;;86.03;30.93;;;-7.60;97.10;;;;;;5010996;28;20129;-83
2021/01/16 00:37:44;;;;;;;98.83;32.03;;;-7.70;94.10;;;;;;5011070;28;20058;-83
2021/01/16 00:40:14;;;;;;;90.80;27.80;;;-7.80;93.60;;;;;;4995664;28;20451;-83
2021/01/16 00:42:45;;;;;;;81.07;26.90;;;-7.90;92.00;;;;;;4995640;28;20034;-84
2021/01/16 00:45:13;;;;;;;75.83;28.93;;;-8.00;91.20;;;;;;4995619;28;20407;-84
2021/01/16 00:47:39;;;;;;;65.67;22.17;;;-8.10;91.70;;;;;;4995243;28;20037;-85
2021/01/16 00:50:07;;;;;;;76.80;27.53;;;-8.20;92.20;;;;;;4995415;28;20034;-84
2021/01/16 00:52:33;;;;;;;55.90;21.90;;;-8.30;93.10;;;;;;4994071;28;20061;-84
2021/01/16 00:55:00;;;;;;;50.40;20.17;;;-8.40;92.30;;;;;;5010488;28;20069;-84
2021/01/16 00:57:26;;;;;;;63.60;21.13;;;-8.50;92.10;;;;;;4995392;28;20062;-85
2021/01/16 00:59:52;;;;;;;56.77;22.43;;;-8.50;91.50;;;;;;4995148;28;20018;-85
2021/01/16 01:02:18;;;;;;;63.30;22.90;;;-8.50;93.30;;;;;;4993794;28;20034;-85
2021/01/16 01:04:44;;;;;;;48.50;19.57;;;-8.50;93.70;;;;;;5010178;28;20023;-85
2021/01/16 01:07:10;;;;;;;54.23;22.40;;;-8.60;94.30;;;;;;4994887;28;20038;-85
2021/01/16 01:09:38;;;;;;;47.03;19.57;;;-8.50;94.50;;;;;;4995113;28;20439;-85
2021/01/16 01:12:04;;;;;;;58.43;23.17;;;-8.50;94.20;;;;;;4995296;28;20023;-83
2021/01/16 01:14:30;;;;;;;54.57;20.90;;;-8.50;94.90;;;;;;4994678;28;20046;-84
2021/01/16 01:16:56;;;;;;;57.77;19.53;;;-8.50;94.40;;;;;;5009891;28;20026;-84
2021/01/16 01:19:21;;;;;;;48.80;19.90;;;-8.60;93.50;;;;;;4994880;28;20049;-84
2021/01/16 01:21:50;;;;;;;44.83;20.77;;;-8.60;92.40;;;;;;4993069;28;20114;-84
2021/01/16 01:24:15;;;;;;;44.27;18.63;;;-8.70;92.30;;;;;;5009506;28;20029;-84
2021/01/16 01:26:41;;;;;;;49.67;18.20;;;-8.80;90.80;;;;;;4995057;28;20097;-84
2021/01/16 01:29:07;;;;;;;47.57;20.27;;;-8.80;91.00;;;;;;4993262;28;20026;-84
2021/01/16 01:31:35;;;;;;;38.47;15.67;;;-8.90;90.70;;;;;;4994708;28;20038;-83
2021/01/16 01:34:01;;;;;;;43.73;17.47;;;-8.90;92.70;;;;;;4993600;28;20048;-83
2021/01/16 01:36:27;;;;;;;44.17;18.37;;;-8.80;94.80;;;;;;4995049;28;20468;-84
2021/01/16 01:38:52;;;;;;;57.13;21.10;;;-8.80;95.70;;;;;;4994575;28;20041;-86
2021/01/16 01:41:18;;;;;;;50.67;18.30;;;-8.80;95.80;;;;;;4993247;28;20106;-86
2021/01/16 01:43:44;;;;;;;62.37;24.20;;;-8.80;95.30;;;;;;4994312;28;20061;-86
2021/01/16 01:46:10;;;;;;;67.03;25.80;;;-8.80;95.60;;;;;;4993064;28;20076;-86
2021/01/16 01:48:36;;;;;;;58.53;24.07;;;-8.80;95.20;;;;;;4994310;28;20030;-86
2021/01/16 01:51:02;;;;;;;62.63;24.67;;;-8.80;94.60;;;;;;4993375;28;20034;-84
2021/01/16 01:53:29;;;;;;;68.27;27.03;;;-8.90;94.70;;;;;;4994120;28;20022;-86
2021/01/16 01:55:57;;;;;;;58.20;22.93;;;-8.90;95.20;;;;;;4994405;28;20095;-87
2021/01/16 01:58:25;;;;;;;48.20;19.17;;;-8.90;96.80;;;;;;4994125;28;20027;-86
2021/01/16 02:00:54;;;;;;;56.37;20.50;;;-8.90;97.70;;;;;;4993003;28;20022;-85
2021/01/16 02:03:24;;;;;;;64.10;24.00;;;-9.00;97.90;;;;;;4992904;28;20109;-86
2021/01/16 02:05:56;;;;;;;70.80;27.60;;;-9.00;97.40;;;;;;4992866;28;20029;-85
2021/01/16 02:08:23;;;;;;;70.38;25.50;;;-9.10;95.20;;;;;;4993109;28;20019;-86
2021/01/16 02:10:49;;;;;;;64.80;25.07;;;-9.10;94.20;;;;;;4993053;28;20026;-85
2021/01/16 02:13:15;;;;;;;61.20;22.17;;;-9.10;94.30;;;;;;4993854;28;20128;-86
2021/01/16 02:16:03;;;;;;;68.30;26.67;;;-9.20;92.90;;;;;;5012653;28;20034;-85
2021/01/16 02:18:35;;;;;;;85.93;32.07;;;-9.30;93.00;;;;;;5012035;28;20038;-86
2021/01/16 02:21:07;;;;;;;84.43;31.67;;;-9.20;94.70;;;;;;5013288;28;20022;-86
2021/01/16 02:23:49;;;;;;;75.17;30.63;;;-9.20;95.80;;;;;;5013249;28;20268;-86
2021/01/16 02:26:15;;;;;;;41.88;18.30;;;-9.30;96.30;;;;;;5011983;28;20040;-86
2021/01/16 02:28:56;;;;;;;52.57;20.00;;;-9.50;96.30;;;;;;5013040;28;20033;-87
2021/01/16 02:31:23;;;;;;;61.10;22.33;;;-9.50;97.70;;;;;;5011596;28;20026;-87
2021/01/16 02:33:50;;;;;;;55.27;22.17;;;-9.50;97.20;;;;;;5012614;28;20489;-87
2021/01/16 02:36:18;;;;;;;51.00;19.40;;;-9.50;97.50;;;;;;5027668;28;20125;-87
2021/01/16 02:39:36;;;;;;;55.63;19.00;;;-9.50;97.50;;;;;;5011693;28;20034;-87
2021/01/16 02:42:14;;;;;;;46.53;18.17;;;-9.50;97.80;;;;;;4995846;28;20124;-87
2021/01/16 02:45:09;;;;;;;48.57;18.17;;;-9.40;97.60;;;;;;5028485;28;20022;-87
2021/01/16 02:47:40;;;;;;;35.60;17.37;;;-9.40;95.00;;;;;;5012751;28;20490;-86
2021/01/16 02:50:07;;;;;;;48.37;19.07;;;-9.40;93.80;;;;;;5011622;28;20498;-85
2021/01/16 02:52:39;;;;;;;65.60;25.17;;;-9.40;92.20;;;;;;5012761;28;20060;-86
2021/01/16 02:55:06;;;;;;;49.83;20.53;;;-9.40;92.30;;;;;;5011569;28;20069;-86
2021/01/16 02:57:32;;;;;;;56.93;21.80;;;-9.40;92.70;;;;;;5010704;28;20053;-86
2021/01/16 02:59:58;;;;;;;48.43;20.73;;;-9.30;93.70;;;;;;5028029;28;20068;-86
2021/01/16 03:02:24;;;;;;;55.80;21.97;;;-9.30;95.10;;;;;;5027986;28;20060;-84
2021/01/16 03:04:49;;;;;;;59.30;20.87;;;-9.20;97.30;;;;;;5012562;28;20030;-86
2021/01/16 03:07:16;;;;;;;53.27;22.33;;;-9.20;99.10;;;;;;5012929;28;20026;-84
2021/01/16 03:09:42;;;;;;;51.43;21.10;;;-9.10;99.90;;;;;;5012771;28;20014;-86
2021/01/16 03:12:09;;;;;;;44.87;18.33;;;-9.00;99.90;;;;;;5012484;28;20479;-85
2021/01/16 03:14:38;;;;;;;39.97;16.80;;;-8.90;99.90;;;;;;5012408;28;20034;-86
2021/01/16 03:17:10;;;;;;;46.27;16.00;;;-8.80;99.90;;;;;;5012371;28;20025;-86
2021/01/16 03:19:38;;;;;;;32.83;15.48;;;-8.70;99.90;;;;;;5027961;28;20029;-86
2021/01/16 03:22:16;;;;;;;35.80;15.33;;;-8.70;99.90;;;;;;5012329;28;20076;-86
2021/01/16 03:24:42;;;;;;;34.30;16.23;;;-8.60;99.90;;;;;;5012537;28;20132;-85
2021/01/16 03:27:08;;;;;;;32.60;14.90;;;-8.60;99.90;;;;;;5012686;28;20463;-85
2021/01/16 03:29:33;;;;;;;31.30;14.20;;;-8.50;99.90;;;;;;5027819;28;20026;-86
2021/01/16 03:31:59;;;;;;;40.17;16.17;;;-8.50;99.90;;;;;;5012358;28;20030;-85
2021/01/16 03:34:25;;;;;;;34.57;15.33;;;-8.50;99.90;;;;;;5012323;28;20479;-85
2021/01/16 03:36:50;;;;;;;32.37;15.17;;;-8.40;99.90;;;;;;5012595;28;20046;-86
2021/01/16 03:39:16;;;;;;;37.53;15.97;;;-8.40;99.90;;;;;;5028064;28;20061;-86
2021/01/16 03:41:42;;;;;;;27.23;14.67;;;-8.30;99.90;;;;;;5012706;28;20104;-86
2021/01/16 03:44:08;;;;;;;29.63;13.50;;;-8.30;99.90;;;;;;5012691;28;20029;-86
2021/01/16 03:46:33;;;;;;;28.80;11.97;;;-8.20;99.90;;;;;;5029877;28;20018;-85
2021/01/16 03:48:59;;;;;;;28.53;12.57;;;-8.20;99.90;;;;;;5016460;28;20053;-85
2021/01/16 03:51:25;;;;;;;27.77;12.23;;;-8.20;99.90;;;;;;5016825;28;20501;-85
2021/01/16 03:53:51;;;;;;;28.43;12.00;;;-8.10;99.90;;;;;;5015020;28;20037;-85
2021/01/16 03:56:16;;;;;;;26.57;11.77;;;-8.10;99.90;;;;;;5031458;28;20068;-86
2021/01/16 03:58:42;;;;;;;30.50;13.10;;;-8.10;99.90;;;;;;5031435;28;20022;-86
2021/01/16 04:01:08;;;;;;;30.10;12.20;;;-8.20;99.90;;;;;;5016207;28;20064;-86
2021/01/16 04:03:33;;;;;;;32.40;12.87;;;-8.30;99.90;;;;;;5016557;28;20030;-85
2021/01/16 04:05:59;;;;;;;33.77;12.97;;;-8.20;99.90;;;;;;5016165;28;20472;-84
2021/01/16 04:08:25;;;;;;;36.87;15.20;;;-8.20;99.90;;;;;;5016072;28;20036;-85
2021/01/16 04:10:51;;;;;;;35.47;12.87;;;-8.20;99.90;;;;;;5016061;28;20438;-86
2021/01/16 04:13:16;;;;;;;26.80;12.63;;;-8.20;99.90;;;;;;5015921;28;20384;-86
2021/01/16 04:15:43;;;;;;;30.77;11.80;;;-8.20;99.90;;;;;;5016180;28;20431;-86
2021/01/16 04:18:11;;;;;;;29.30;12.90;;;-8.10;99.90;;;;;;5016145;28;20037;-86
2021/01/16 04:20:37;;;;;;;22.13;11.30;;;-8.10;99.90;;;;;;5016109;28;20054;-86
2021/01/16 04:23:03;;;;;;;28.20;12.03;;;-8.10;99.90;;;;;;5014669;28;20037;-86
2021/01/16 04:25:29;;;;;;;35.93;12.23;;;-8.10;99.90;;;;;;5015753;28;20034;-85
2021/01/16 04:27:54;;;;;;;35.80;13.40;;;-8.10;99.90;;;;;;5015743;28;20026;-85
2021/01/16 04:30:21;;;;;;;28.30;12.70;;;-8.00;99.90;;;;;;5015949;28;20089;-85
2021/01/16 04:32:50;;;;;;;30.63;12.03;;;-8.00;99.90;;;;;;5015815;28;20033;-86
2021/01/16 04:35:16;;;;;;;29.40;12.77;;;-7.90;99.90;;;;;;5014510;28;20037;-85
2021/01/16 04:37:45;;;;;;;26.00;12.60;;;-7.90;99.90;;;;;;5015586;28;20022;-85
2021/01/16 04:40:12;;;;;;;26.73;12.00;;;-7.90;99.90;;;;;;5015546;28;20022;-85
2021/01/16 04:42:43;;;;;;;25.73;10.67;;;-7.90;99.90;;;;;;5015300;28;20022;-85
2021/01/16 04:45:12;;;;;;;28.77;12.83;;;-7.80;99.90;;;;;;5015698;28;20072;-85
2021/01/16 04:47:39;;;;;;;28.87;12.63;;;-7.80;99.90;;;;;;5015310;28;20010;-86
2021/01/16 04:50:07;;;;;;;23.93;10.63;;;-7.70;99.90;;;;;;5030472;28;20495;-85
2021/01/16 04:52:33;;;;;;;38.07;13.67;;;-7.70;99.90;;;;;;5014061;28;20022;-86
2021/01/16 04:55:00;;;;;;;28.27;13.93;;;-7.70;99.90;;;;;;5013749;28;20067;-86
2021/01/16 04:57:30;;;;;;;36.90;13.30;;;-7.60;99.90;;;;;;5014378;28;20475;-85
2021/01/16 04:59:56;;;;;;;30.33;13.67;;;-7.60;99.90;;;;;;5030463;28;20041;-86
2021/01/16 05:02:23;;;;;;;33.87;13.97;;;-7.60;99.90;;;;;;5030207;28;20014;-85
2021/01/16 05:04:50;;;;;;;40.73;15.77;;;-7.60;99.90;;;;;;5030740;28;20057;-86
2021/01/16 05:07:19;;;;;;;39.50;15.17;;;-7.50;99.90;;;;;;5013811;28;20057;-86
2021/01/16 05:09:46;;;;;;;41.40;14.67;;;-7.50;99.90;;;;;;5015224;28;20026;-86
2021/01/16 05:12:52;;;;;;;40.63;16.03;;;-7.40;99.90;;;;;;5015116;28;20109;-85
2021/01/16 05:15:30;;;;;;;39.37;15.83;;;-7.40;99.90;;;;;;4996924;28;20042;-86
2021/01/16 05:18:03;;;;;;;47.37;18.93;;;-7.30;99.90;;;;;;5030404;28;20033;-86
2021/01/16 05:20:28;;;;;;;51.92;20.70;;;-7.30;99.90;;;;;;5015024;28;20036;-85
2021/01/16 05:23:11;;;;;;;42.40;17.43;;;-7.30;99.90;;;;;;5014897;28;20387;-85
2021/01/16 05:25:40;;;;;;;41.23;14.73;;;-7.30;99.90;;;;;;5030198;28;20402;-85
2021/01/16 05:28:07;;;;;;;43.07;14.97;;;-7.30;99.90;;;;;;5013496;28;20537;-85
2021/01/16 05:30:47;;;;;;;30.90;12.97;;;-7.30;99.90;;;;;;5013244;28;20057;-85
2021/01/16 05:33:13;;;;;;;31.97;11.90;;;-7.30;99.90;;;;;;4994281;28;20101;-85
2021/01/16 05:35:39;;;;;;;27.90;13.20;;;-7.30;99.90;;;;;;4995207;28;20583;-85
2021/01/16 05:38:06;;;;;;;40.23;17.73;;;-7.30;99.90;;;;;;4993576;28;20053;-86
2021/01/16 05:40:32;;;;;;;60.27;21.17;;;-7.30;99.90;;;;;;4994079;28;20026;-85
2021/01/16 05:43:00;;;;;;;46.70;18.33;;;-7.30;99.90;;;;;;4995207;28;20026;-86
2021/01/16 05:45:26;;;;;;;49.43;16.30;;;-7.20;99.90;;;;;;4994930;28;20033;-85
2021/01/16 05:47:52;;;;;;;35.77;12.93;;;-7.20;99.90;;;;;;4994138;28;20031;-87
2021/01/16 05:50:22;;;;;;;33.53;14.40;;;-7.10;99.90;;;;;;4994696;28;20090;-86
2021/01/16 05:52:49;;;;;;;28.60;12.13;;;-7.10;99.90;;;;;;4994825;28;20109;-85
2021/01/16 05:55:17;;;;;;;34.43;13.87;;;-7.00;99.90;;;;;;4994381;28;20031;-86
2021/01/16 05:57:47;;;;;;;27.17;12.03;;;-6.90;99.90;;;;;;4993554;28;20057;-86
2021/01/16 06:00:23;;;;;;;25.10;11.07;;;-6.80;99.90;;;;;;4994719;28;20018;-86
2021/01/16 06:02:57;;;;;;;29.63;12.83;;;-6.70;99.90;;;;;;4994726;28;20113;-86
2021/01/16 06:05:24;;;;;;;27.77;12.10;;;-6.70;99.90;;;;;;4994804;28;20037;-85
2021/01/16 06:07:52;;;;;;;27.20;12.37;;;-6.60;99.90;;;;;;4994736;28;20030;-85
2021/01/16 06:10:18;;;;;;;27.20;12.03;;;-6.50;99.90;;;;;;4994337;28;20023;-84
2021/01/16 06:12:44;;;;;;;31.17;13.37;;;-6.50;99.90;;;;;;4993140;28;20104;-85
2021/01/16 06:15:18;;;;;;;25.40;11.27;;;-6.40;99.90;;;;;;5009416;28;20168;-85
2021/01/16 06:17:49;;;;;;;31.93;12.67;;;-6.40;99.90;;;;;;4992765;28;20569;-85
2021/01/16 06:20:18;;;;;;;26.83;12.37;;;-6.40;99.90;;;;;;4994177;28;20018;-86
2021/01/16 06:22:49;;;;;;;23.03;11.67;;;-6.30;99.90;;;;;;4993833;28;20026;-86
2021/01/16 06:25:18;;;;;;;28.37;13.07;;;-6.30;99.90;;;;;;4993237;28;20058;-85
2021/01/16 06:27:46;;;;;;;25.07;11.30;;;-6.30;99.90;;;;;;4992882;28;20354;-87
2021/01/16 06:30:20;;;;;;;27.10;12.17;;;-6.30;99.90;;;;;;4994079;28;20530;-86
2021/01/16 06:32:55;;;;;;;21.43;10.70;;;-6.30;99.90;;;;;;4994541;28;20022;-86
2021/01/16 06:35:27;;;;;;;27.63;12.80;;;-6.20;99.90;;;;;;4993829;28;20042;-86
2021/01/16 06:37:52;;;;;;;29.52;13.93;;;-6.20;99.90;;;;;;4994102;28;20041;-86
2021/01/16 06:40:34;;;;;;;26.33;11.93;;;-6.10;99.90;;;;;;4993670;28;20019;-86
2021/01/16 06:43:01;;;;;;;33.90;14.50;;;-6.10;99.90;;;;;;4993002;28;20475;-87
2021/01/16 06:45:29;;;;;;;80.97;35.33;;;-6.10;99.90;;;;;;4992433;28;20030;-88
2021/01/16 06:48:01;;;;;;;46.43;20.93;;;-6.10;99.90;;;;;;4992565;28;20029;-87
2021/01/16 06:50:34;;;;;;;45.58;26.15;;;-6.10;99.90;;;;;;5008720;28;20472;-87
2021/01/16 06:53:00;;;;;;;67.55;30.23;;;-6.00;99.90;;;;;;5008567;28;20037;-87
2021/01/16 06:55:29;;;;;;;82.63;28.60;;;-6.00;99.90;;;;;;4992665;28;20399;-87
2021/01/16 06:57:54;;;;;;;51.40;23.73;;;-6.00;99.90;;;;;;4993341;28;20019;-85
2021/01/16 07:00:21;;;;;;;45.43;19.27;;;-6.00;99.90;;;;;;4993438;28;20527;-85
2021/01/16 07:02:47;;;;;;;59.87;28.50;;;-5.90;99.90;;;;;;4993736;28;20051;-85
2021/01/16 07:05:16;;;;;;;94.53;35.00;;;-5.90;99.90;;;;;;4993434;28;20354;-85
2021/01/16 07:07:45;;;;;;;104.70;37.10;;;-5.90;99.90;;;;;;4992024;28;20061;-84
2021/01/16 07:10:11;;;;;;;139.20;49.07;;;-5.90;99.90;;;;;;4991425;28;20034;-85
2021/01/16 07:12:40;;;;;;;202.10;68.47;;;-5.90;99.90;;;;;;4991751;28;20030;-85
2021/01/16 07:15:08;;;;;;;156.97;51.63;;;-5.80;99.90;;;;;;4997298;28;20037;-87
2021/01/16 07:17:36;;;;;;;84.77;27.03;;;-5.80;99.90;;;;;;4995457;28;20037;-87
2021/01/16 07:20:06;;;;;;;87.27;31.40;;;-5.80;99.90;;;;;;4992455;28;20030;-88
2021/01/16 07:22:34;;;;;;;117.63;41.33;;;-5.70;99.90;;;;;;5008318;28;20022;-88
2021/01/16 07:25:03;;;;;;;91.60;31.47;;;-5.70;99.90;;;;;;4995548;28;20081;-85
2021/01/16 07:27:29;;;;;;;54.97;21.73;;;-5.70;99.90;;;;;;5008141;28;20034;-85
2021/01/16 07:29:59;;;;;;;52.83;21.90;;;-5.60;99.90;;;;;;4993055;28;20023;-85
2021/01/16 07:32:46;;;;;;;47.27;21.63;;;-5.60;99.90;;;;;;4993068;28;20022;-85
2021/01/16 07:35:20;;;;;;;60.80;21.97;;;-5.60;99.90;;;;;;4993068;28;20030;-86
2021/01/16 07:37:48;;;;;;;51.10;18.87;;;-5.50;99.90;;;;;;5003295;28;20022;-86
2021/01/16 07:40:16;;;;;;;96.60;35.77;;;-5.40;99.90;;;;;;5011942;28;20472;-85
2021/01/16 07:42:50;;;;;;;93.50;37.33;;;-5.40;99.90;;;;;;5012449;28;20383;-84
2021/01/16 07:45:22;;;;;;;51.00;20.77;;;-5.30;99.90;;;;;;5011600;28;20448;-85
2021/01/16 07:47:51;;;;;;;123.47;45.27;;;-5.30;99.90;;;;;;5012681;28;20060;-85
2021/01/16 07:50:22;;;;;;;74.30;26.73;;;-5.20;99.90;;;;;;5012304;28;20499;-85
2021/01/16 07:53:08;;;;;;;58.92;23.05;;;-5.10;99.90;;;;;;5012602;28;20026;-85
2021/01/16 07:55:36;;;;;;;102.60;38.17;;;-5.10;99.90;;;;;;5011143;28;20038;-85
2021/01/16 07:58:33;;;;;;;62.58;23.98;;;-5.00;99.90;;;;;;5011427;28;20022;-85
2021/01/16 08:01:29;;;;;;;56.50;22.67;;;-5.00;99.90;;;;;;5012406;28;20422;-85
2021/01/16 08:04:15;;;;;;;100.57;41.33;;;-5.00;99.90;;;;;;5006803;28;20015;-85
2021/01/16 08:07:06;;;;;;;31.88;16.02;;;-4.90;99.90;;;;;;4991607;28;20026;-85
2021/01/16 08:09:50;;;;;;;108.60;33.83;;;-4.90;99.90;;;;;;4991869;28;20026;-85
2021/01/16 08:12:26;;;;;;;106.05;35.00;;;-4.90;99.90;;;;;;4991337;28;20093;-85
2021/01/16 08:14:54;;;;;;;70.32;27.90;;;-4.80;99.90;;;;;;4993054;28;20038;-85
2021/01/16 08:17:38;;;;;;;29.98;14.70;;;-4.80;99.90;;;;;;4996707;28;20029;-85
2021/01/16 08:20:19;;;;;;;34.25;14.88;;;-4.80;99.90;;;;;;4992300;28;20419;-84
2021/01/16 08:22:51;;;;;;;31.73;14.40;;;-4.70;99.90;;;;;;4994666;28;20105;-85
2021/01/16 08:25:23;;;;;;;46.30;19.63;;;-4.70;99.90;;;;;;4998725;28;20054;-85
2021/01/16 08:27:51;;;;;;;76.30;24.27;;;-4.70;99.90;;;;;;5008713;28;20028;-85
2021/01/16 08:30:20;;;;;;;49.35;19.48;;;-4.60;99.90;;;;;;4997927;28;20097;-85
2021/01/16 08:32:59;;;;;;;100.13;33.30;;;-4.50;99.90;;;;;;4998182;28;20030;-85
2021/01/16 08:35:29;;;;;;;39.47;17.42;;;-4.40;99.90;;;;;;5000749;28;20396;-84
2021/01/16 08:38:17;;;;;;;58.67;26.15;;;-4.50;99.90;;;;;;4992165;28;20022;-87
2021/01/16 08:41:02;;;;;;;39.53;16.48;;;-4.40;99.90;;;;;;4994254;28;20527;-84
2021/01/16 08:43:33;;;;;;;43.67;17.60;;;-4.40;99.90;;;;;;4993152;28;20038;-85
2021/01/16 08:46:09;;;;;;;40.97;17.65;;;-4.40;99.90;;;;;;4993381;28;20121;-85
2021/01/16 08:48:35;;;;;;;38.67;14.35;;;-4.30;99.90;;;;;;4996474;28;20480;-85
2021/01/16 08:51:01;;;;;;;43.88;19.33;;;-4.40;99.90;;;;;;5010890;28;20025;-86
2021/01/16 08:53:28;;;;;;;33.58;14.65;;;-4.40;99.90;;;;;;4990824;28;20073;-86
2021/01/16 08:55:54;;;;;;;32.90;15.15;;;-4.50;99.90;;;;;;4990225;28;20042;-85
2021/01/16 08:58:28;;;;;;;35.60;16.48;;;-4.40;99.90;;;;;;5005668;28;20028;-86
2021/01/16 09:00:54;;;;;;;36.35;15.88;;;-4.30;99.90;;;;;;4988757;28;20022;-85
2021/01/16 09:03:20;;;;;;;31.90;13.75;;;-4.40;99.90;;;;;;4989884;28;20033;-86
2021/01/16 09:05:48;;;;;;;24.50;12.05;;;-4.40;99.90;;;;;;4990726;28;20030;-85
2021/01/16 09:08:17;;;;;;;32.60;15.00;;;-4.50;99.90;;;;;;4998434;28;20513;-86
2021/01/16 09:10:43;;;;;;;38.03;16.02;;;-4.50;99.90;;;;;;4991229;28;20100;-84
2021/01/16 09:13:21;;;;;;;33.00;14.18;;;-4.30;99.90;;;;;;4992886;28;20037;-86
2021/01/16 09:15:48;;;;;;;34.60;16.02;;;-4.20;99.90;;;;;;4998025;28;20042;-85
2021/01/16 09:18:15;;;;;;;50.22;20.25;;;-4.20;99.90;;;;;;4991448;28;20512;-86
2021/01/16 09:20:43;;;;;;;43.30;17.02;;;-4.10;99.90;;;;;;4991942;28;20037;-87
2021/01/16 09:23:33;;;;;;;43.60;17.20;;;-4.00;99.90;;;;;;4990474;28;20030;-86
2021/01/16 09:26:05;;;;;;;47.72;17.67;;;-4.00;99.90;;;;;;4990463;28;20074;-86
2021/01/16 09:28:41;;;;;;;42.63;16.13;;;-3.90;99.90;;;;;;4991919;28;20483;-87
2021/01/16 09:31:55;;;;;;;31.27;13.02;;;-3.80;99.90;;;;;;5007076;28;20077;-84
2021/01/16 09:34:21;;;;;;;50.03;19.10;;;-3.80;99.90;;;;;;4934384;29;20035;-85
2021/01/16 09:36:47;;;;;;;42.80;15.10;;;-3.70;99.90;;;;;;4953805;28;20038;-83
2021/01/16 09:39:25;;;;;;;42.08;18.48;;;-3.60;99.90;;;;;;4956732;28;20080;-86
2021/01/16 09:41:54;;;;;;;31.45;14.75;;;-3.60;99.90;;;;;;5000965;28;20030;-85
2021/01/16 09:44:39;;;;;;;35.53;14.35;;;-3.70;99.90;;;;;;4984375;28;20034;-85
2021/01/16 09:47:25;;;;;;;31.67;14.88;;;-3.60;99.90;;;;;;4996121;28;20445;-84
2021/01/16 09:50:00;;;;;;;33.08;14.57;;;-3.70;99.90;;;;;;4995253;28;20054;-84
2021/01/16 09:52:26;;;;;;;144.45;74.32;;;-3.60;99.90;;;;;;4989943;28;20030;-84
2021/01/16 09:54:53;;;;;;;36.83;18.30;;;-3.50;99.90;;;;;;4994605;28;20464;-84
2021/01/16 09:57:36;;;;;;;29.42;15.13;;;-3.60;99.90;;;;;;5007962;28;20049;-84
2021/01/16 10:00:14;;;;;;;26.88;13.60;;;-3.70;99.90;;;;;;4995923;28;20033;-85
2021/01/16 10:02:43;;;;;;;32.55;14.13;;;-3.70;99.90;;;;;;4993613;28;20039;-83
2021/01/16 10:05:14;;;;;;;29.77;14.48;;;-3.70;99.90;;;;;;5010900;28;20022;-85
2021/01/16 10:07:42;;;;;;;28.90;14.00;;;-3.60;99.90;;;;;;4996252;28;20034;-85
2021/01/16 10:10:13;;;;;;;27.92;14.85;;;-3.50;99.90;;;;;;4994066;28;20022;-86
2021/01/16 10:12:40;;;;;;;26.35;12.23;;;-3.60;99.90;;;;;;4991471;28;20030;-85
2021/01/16 10:15:12;;;;;;;31.98;16.42;;;-3.60;99.90;;;;;;4992299;28;20128;-84
2021/01/16 10:17:53;;;;;;;26.97;13.03;;;-3.70;99.90;;;;;;4992367;28;20101;-85
2021/01/16 10:20:19;;;;;;;21.63;11.30;;;-3.70;99.90;;;;;;5006511;28;20056;-86
2021/01/16 10:22:52;;;;;;;28.60;12.68;;;-3.80;99.90;;;;;;4990407;28;20065;-85
2021/01/16 10:25:20;;;;;;;26.23;13.15;;;-3.80;99.90;;;;;;4989393;28;20298;-87
2021/01/16 10:27:49;;;;;;;36.58;15.68;;;-3.70;99.90;;;;;;4985740;28;20093;-85
2021/01/16 10:30:18;;;;;;;30.63;14.35;;;-3.60;99.90;;;;;;4986897;28;20117;-84
2021/01/16 10:32:46;;;;;;;36.15;14.50;;;-3.50;99.90;;;;;;4988967;28;20528;-85
2021/01/16 10:35:20;;;;;;;32.10;13.68;;;-3.60;99.90;;;;;;4990627;28;20456;-84
2021/01/16 10:37:46;;;;;;;34.85;16.05;;;-3.60;99.90;;;;;;4992373;28;20018;-86
2021/01/16 10:40:12;;;;;;;32.15;15.25;;;-3.50;99.90;;;;;;4995350;28;20023;-85
2021/01/16 10:42:44;;;;;;;31.27;13.90;;;-3.60;99.90;;;;;;4989383;28;20041;-85
2021/01/16 10:45:11;;;;;;;31.80;14.25;;;-3.60;99.90;;;;;;4994220;28;20034;-85
2021/01/16 10:47:38;;;;;;;32.67;15.43;;;-3.50;99.90;;;;;;4991999;28;20058;-85
2021/01/16 10:50:28;;;;;;;50.28;22.80;;;-3.40;99.90;;;;;;4992388;28;20027;-84
2021/01/16 10:53:01;;;;;;;26.30;13.77;;;-3.40;99.90;;;;;;4999017;28;20053;-84
2021/01/16 10:55:54;;;;;;;37.13;17.77;;;-3.30;99.90;;;;;;5004958;28;20058;-85
2021/01/16 10:58:27;;;;;;;35.00;14.10;;;-3.40;99.70;;;;;;4988583;28;20337;-84
2021/01/16 11:00:54;;;;;;;33.92;15.05;;;-3.20;99.90;;;;;;4992186;28;20502;-85
2021/01/16 11:03:26;;;;;;;32.53;15.98;;;-3.10;99.40;;;;;;4991080;28;20507;-85
2021/01/16 11:05:53;;;;;;;41.08;14.68;;;-3.00;97.20;;;;;;4992781;28;20360;-85
2021/01/16 11:08:27;;;;;;;48.35;18.52;;;-3.10;96.20;;;;;;4992766;28;20054;-84
2021/01/16 11:10:53;;;;;;;38.50;15.90;;;-3.10;95.90;;;;;;4976954;28;20014;-84
2021/01/16 11:13:30;;;;;;;45.65;19.17;;;-3.10;97.60;;;;;;4991714;28;20045;-85
2021/01/16 11:16:16;;;;;;;43.72;20.63;;;-3.10;97.90;;;;;;4991390;28;20041;-84
2021/01/16 11:18:43;;;;;;;30.20;12.77;;;-3.00;99.20;;;;;;4992782;28;20025;-86
2021/01/16 11:21:11;;;;;;;34.30;14.68;;;-2.90;99.10;;;;;;4991623;28;20045;-85
2021/01/16 11:23:50;;;;;;;40.20;17.45;;;-2.90;97.70;;;;;;4972415;28;20038;-84
2021/01/16 11:26:17;;;;;;;36.25;16.48;;;-2.90;98.30;;;;;;4973668;28;20034;-83
2021/01/16 11:28:49;;;;;;;28.77;11.90;;;-2.90;98.20;;;;;;4993969;28;20153;-85
2021/01/16 11:31:25;;;;;;;;;;;-3.00;96.80;;;;;;4986969;28;20041;-86
2021/01/16 11:34:08;;;;;;;36.78;17.30;;;-3.10;98.40;;;;;;4988662;28;19917;-85
2021/01/16 11:36:54;;;;;;;;;;;-3.10;99.20;;;;;;4990471;28;20124;-85
2021/01/16 11:39:46;;;;;;;18.95;9.93;;;-3.30;99.90;;;;;;4998532;28;19940;-86
2021/01/16 11:42:13;;;;;;;42.92;19.80;;;-3.10;99.90;;;;;;4987786;28;20372;-84
2021/01/16 11:44:51;;;;;;;31.35;15.25;;;-3.10;99.90;;;;;;4988765;28;20523;-85
2021/01/16 11:47:17;;;;;;;43.90;25.73;;;-3.10;97.40;;;;;;4986492;28;20453;-85
2021/01/16 11:49:44;;;;;;;69.45;27.17;;;-3.00;99.10;;;;;;4988295;28;20029;-85
2021/01/16 11:52:11;;;;;;;52.15;24.05;;;-2.80;99.30;;;;;;4991167;28;20114;-84
2021/01/16 11:54:37;;;;;;;47.45;19.35;;;-2.90;99.60;;;;;;4993465;28;20038;-85
2021/01/16 11:57:03;;;;;;;41.08;17.40;;;-3.10;99.90;;;;;;4988886;28;20026;-87
2021/01/16 11:59:33;;;;;;;44.63;18.52;;;-3.20;99.90;;;;;;4989869;28;20038;-86
2021/01/16 12:02:00;;;;;;;30.05;14.30;;;-3.30;99.90;;;;;;4988757;28;20015;-87
2021/01/16 12:04:27;;;;;;;38.50;15.73;;;-3.30;99.90;;;;;;5004556;28;20018;-85
2021/01/16 12:06:53;;;;;;;19.05;11.73;;;-3.30;99.90;;;;;;4993237;28;20042;-84
2021/01/16 12:09:20;;;;;;;29.08;14.25;;;-3.30;99.90;;;;;;4994940;28;20054;-85
2021/01/16 12:11:53;;;;;;;30.98;14.40;;;-3.30;99.90;;;;;;4995310;28;20018;-86
2021/01/16 12:14:23;;;;;;;26.50;11.63;;;-3.30;99.90;;;;;;4991017;28;20093;-86
2021/01/16 12:16:49;;;;;;;22.33;8.80;;;-3.40;99.90;;;;;;4992454;28;20037;-83
2021/01/16 12:19:16;;;;;;;19.23;11.40;;;-3.60;99.90;;;;;;4996197;28;20019;-84
2021/01/16 12:21:49;;;;;;;14.13;8.70;;;-3.60;98.30;;;;;;4993878;28;20038;-83
2021/01/16 12:24:15;;;;;;;21.17;11.05;;;-3.80;97.60;;;;;;4996553;28;20101;-81
2021/01/16 12:26:49;;;;;;;17.88;10.13;;;-3.70;98.30;;;;;;4997549;28;20395;-81
2021/01/16 12:30:03;;;;;;;13.63;7.53;;;-3.70;98.70;;;;;;4993754;28;20117;-82
2021/01/16 12:32:36;;;;;;;;;;;-3.80;96.90;;;;;;4991860;28;20143;-85
2021/01/16 12:35:03;;;;;;;15.93;8.50;;;-3.90;97.20;;;;;;5002990;28;19956;-84
2021/01/16 12:37:40;;;;;;;14.70;7.13;;;-3.90;96.50;;;;;;5010640;28;20038;-84
2021/01/16 12:40:20;;;;;;;15.15;7.80;;;-3.90;95.70;;;;;;5006432;28;20375;-84
2021/01/16 12:42:46;;;;;;;10.70;7.13;;;-4.00;94.30;;;;;;4993463;28;20030;-83
2021/01/16 12:45:15;;;;;;;21.60;11.80;;;-4.10;91.90;;;;;;4994368;28;20904;-83